sensor_id;sensor_type;location;lat;lon;timestamp;temperature;humidity
69747;DHT22;57018;50.278;19.134;2022-11-21T00:00:23;3.70;92.50
69747;DHT22;57018;50.278;19.134;2022-11-21T00:02:50;3.80;92.40
69747;DHT22;57018;50.278;19.134;2022-11-21T00:05:17;3.90;92.50
69747;DHT22;57018;50.278;19.134;2022-11-21T00:07:43;4.00;92.20
69747;DHT22;57018;50.278;19.134;2022-11-21T00:10:11;3.80;92.00
69747;DHT22;57018;50.278;19.134;2022-11-21T00:12:37;4.00;91.60
69747;DHT22;57018;50.278;19.134;2022-11-21T00:15:04;4.00;91.80
69747;DHT22;57018;50.278;19.134;2022-11-21T00:17:31;3.90;91.70
69747;DHT22;57018;50.278;19.134;2022-11-21T00:19:57;3.80;91.60
69747;DHT22;57018;50.278;19.134;2022-11-21T00:22:23;3.70;92.10
69747;DHT22;57018;50.278;19.134;2022-11-21T00:24:49;3.60;92.50
69747;DHT22;57018;50.278;19.134;2022-11-21T00:27:15;3.70;92.20
69747;DHT22;57018;50.278;19.134;2022-11-21T00:29:41;3.50;92.80
69747;DHT22;57018;50.278;19.134;2022-11-21T00:32:07;3.80;92.30
69747;DHT22;57018;50.278;19.134;2022-11-21T00:34:33;3.60;92.00
69747;DHT22;57018;50.278;19.134;2022-11-21T00:36:59;3.90;92.10
69747;DHT22;57018;50.278;19.134;2022-11-21T00:39:25;3.80;91.70
69747;DHT22;57018;50.278;19.134;2022-11-21T00:41:50;4.00;91.70
69747;DHT22;57018;50.278;19.134;2022-11-21T00:44:17;3.90;91.70
69747;DHT22;57018;50.278;19.134;2022-11-21T00:46:43;4.00;91.60
69747;DHT22;57018;50.278;19.134;2022-11-21T00:49:09;4.10;91.30
69747;DHT22;57018;50.278;19.134;2022-11-21T00:51:35;3.90;90.90
69747;DHT22;57018;50.278;19.134;2022-11-21T00:54:01;3.80;91.10
69747;DHT22;57018;50.278;19.134;2022-11-21T00:56:26;3.50;91.50
69747;DHT22;57018;50.278;19.134;2022-11-21T00:58:53;3.60;92.30
69747;DHT22;57018;50.278;19.134;2022-11-21T01:01:18;3.70;91.90
69747;DHT22;57018;50.278;19.134;2022-11-21T01:03:44;3.80;91.80
69747;DHT22;57018;50.278;19.134;2022-11-21T01:06:13;3.70;91.80
69747;DHT22;57018;50.278;19.134;2022-11-21T01:08:42;3.70;91.40
69747;DHT22;57018;50.278;19.134;2022-11-21T01:11:14;3.80;91.50
69747;DHT22;57018;50.278;19.134;2022-11-21T01:13:40;3.90;91.50
69747;DHT22;57018;50.278;19.134;2022-11-21T01:16:09;3.90;90.90
69747;DHT22;57018;50.278;19.134;2022-11-21T01:18:36;3.60;91.40
69747;DHT22;57018;50.278;19.134;2022-11-21T01:21:05;3.80;91.40
69747;DHT22;57018;50.278;19.134;2022-11-21T01:23:31;3.70;91.10
69747;DHT22;57018;50.278;19.134;2022-11-21T01:26:08;3.80;91.30
69747;DHT22;57018;50.278;19.134;2022-11-21T01:28:30;4.00;91.00
69747;DHT22;57018;50.278;19.134;2022-11-21T01:31:11;3.80;90.50
69747;DHT22;57018;50.278;19.134;2022-11-21T01:33:35;3.80;90.70
69747;DHT22;57018;50.278;19.134;2022-11-21T01:36:16;3.60;90.60
69747;DHT22;57018;50.278;19.134;2022-11-21T01:38:45;3.40;90.60
69747;DHT22;57018;50.278;19.134;2022-11-21T01:41:15;3.30;90.30
69747;DHT22;57018;50.278;19.134;2022-11-21T01:43:41;2.90;90.90
69747;DHT22;57018;50.278;19.134;2022-11-21T01:46:11;2.70;91.50
69747;DHT22;57018;50.278;19.134;2022-11-21T01:48:57;2.30;91.90
69747;DHT22;57018;50.278;19.134;2022-11-21T01:51:32;2.10;93.00
69747;DHT22;57018;50.278;19.134;2022-11-21T01:54:05;1.70;95.10
69747;DHT22;57018;50.278;19.134;2022-11-21T01:56:36;1.60;95.90
69747;DHT22;57018;50.278;19.134;2022-11-21T01:59:02;1.50;95.50
69747;DHT22;57018;50.278;19.134;2022-11-21T02:01:32;1.30;97.40
69747;DHT22;57018;50.278;19.134;2022-11-21T02:04:01;1.20;96.80
69747;DHT22;57018;50.278;19.134;2022-11-21T02:06:28;1.00;98.70
69747;DHT22;57018;50.278;19.134;2022-11-21T02:08:57;0.90;98.20
69747;DHT22;57018;50.278;19.134;2022-11-21T02:11:29;0.90;98.20
69747;DHT22;57018;50.278;19.134;2022-11-21T02:13:56;0.90;99.10
69747;DHT22;57018;50.278;19.134;2022-11-21T02:16:24;0.70;99.10
69747;DHT22;57018;50.278;19.134;2022-11-21T02:18:50;0.60;99.90
69747;DHT22;57018;50.278;19.134;2022-11-21T02:21:31;0.50;99.90
69747;DHT22;57018;50.278;19.134;2022-11-21T02:26:29;0.50;99.90
69747;DHT22;57018;50.278;19.134;2022-11-21T02:28:55;0.50;99.90
69747;DHT22;57018;50.278;19.134;2022-11-21T02:31:22;0.30;99.90
69747;DHT22;57018;50.278;19.134;2022-11-21T02:33:48;0.30;99.90
69747;DHT22;57018;50.278;19.134;2022-11-21T02:36:39;0.20;99.90
69747;DHT22;57018;50.278;19.134;2022-11-21T02:39:07;0.30;99.90
69747;DHT22;57018;50.278;19.134;2022-11-21T02:41:36;0.20;99.90
69747;DHT22;57018;50.278;19.134;2022-11-21T02:44:11;0.10;99.90
69747;DHT22;57018;50.278;19.134;2022-11-21T02:46:34;0.10;99.90
69747;DHT22;57018;50.278;19.134;2022-11-21T02:49:03;0.20;99.90
69747;DHT22;57018;50.278;19.134;2022-11-21T02:51:30;0.20;99.90
69747;DHT22;57018;50.278;19.134;2022-11-21T02:53:56;0.10;99.90
69747;DHT22;57018;50.278;19.134;2022-11-21T02:56:22;0.20;99.90
69747;DHT22;57018;50.278;19.134;2022-11-21T02:58:48;0.10;99.90
69747;DHT22;57018;50.278;19.134;2022-11-21T03:01:14;0.10;99.90
69747;DHT22;57018;50.278;19.134;2022-11-21T03:03:40;0.00;99.90
69747;DHT22;57018;50.278;19.134;2022-11-21T03:06:06;0.00;99.90
69747;DHT22;57018;50.278;19.134;2022-11-21T03:08:32;0.00;99.90
69747;DHT22;57018;50.278;19.134;2022-11-21T03:10:58;0.00;99.90
69747;DHT22;57018;50.278;19.134;2022-11-21T03:13:24;0.00;99.90
69747;DHT22;57018;50.278;19.134;2022-11-21T03:15:50;-0.10;99.90
69747;DHT22;57018;50.278;19.134;2022-11-21T03:18:16;-0.20;99.90
69747;DHT22;57018;50.278;19.134;2022-11-21T03:20:42;-0.20;99.90
69747;DHT22;57018;50.278;19.134;2022-11-21T03:23:08;-0.20;99.90
69747;DHT22;57018;50.278;19.134;2022-11-21T03:25:34;-0.20;99.90
69747;DHT22;57018;50.278;19.134;2022-11-21T03:28:00;-0.30;99.90
69747;DHT22;57018;50.278;19.134;2022-11-21T03:30:26;-0.30;99.90
69747;DHT22;57018;50.278;19.134;2022-11-21T03:32:54;-0.30;99.90
69747;DHT22;57018;50.278;19.134;2022-11-21T03:35:21;-0.40;99.90
69747;DHT22;57018;50.278;19.134;2022-11-21T03:37:47;-0.40;99.90
69747;DHT22;57018;50.278;19.134;2022-11-21T03:40:14;-0.40;99.90
69747;DHT22;57018;50.278;19.134;2022-11-21T03:42:40;-0.40;99.90
69747;DHT22;57018;50.278;19.134;2022-11-21T03:45:07;-0.30;99.90
69747;DHT22;57018;50.278;19.134;2022-11-21T03:47:33;-0.20;99.90
69747;DHT22;57018;50.278;19.134;2022-11-21T03:49:59;-0.10;99.90
69747;DHT22;57018;50.278;19.134;2022-11-21T03:52:25;-0.10;99.90
69747;DHT22;57018;50.278;19.134;2022-11-21T03:54:51;-0.10;99.90
69747;DHT22;57018;50.278;19.134;2022-11-21T03:57:17;-0.10;99.90
69747;DHT22;57018;50.278;19.134;2022-11-21T03:59:43;-0.20;99.90
69747;DHT22;57018;50.278;19.134;2022-11-21T04:02:09;-0.20;99.90
69747;DHT22;57018;50.278;19.134;2022-11-21T04:04:35;-0.20;99.90
69747;DHT22;57018;50.278;19.134;2022-11-21T04:07:01;-0.30;99.90
69747;DHT22;57018;50.278;19.134;2022-11-21T04:09:28;-0.40;99.90
69747;DHT22;57018;50.278;19.134;2022-11-21T04:11:54;-0.30;99.90
69747;DHT22;57018;50.278;19.134;2022-11-21T04:14:20;-0.30;99.90
69747;DHT22;57018;50.278;19.134;2022-11-21T04:16:46;-0.30;99.90
69747;DHT22;57018;50.278;19.134;2022-11-21T04:19:11;-0.30;99.90
69747;DHT22;57018;50.278;19.134;2022-11-21T04:21:37;-0.20;99.90
69747;DHT22;57018;50.278;19.134;2022-11-21T04:24:04;-0.20;99.90
69747;DHT22;57018;50.278;19.134;2022-11-21T04:26:30;-0.20;99.90
69747;DHT22;57018;50.278;19.134;2022-11-21T04:28:56;-0.20;99.90
69747;DHT22;57018;50.278;19.134;2022-11-21T04:31:23;-0.30;99.90
69747;DHT22;57018;50.278;19.134;2022-11-21T04:33:49;-0.30;99.90
69747;DHT22;57018;50.278;19.134;2022-11-21T04:36:14;-0.30;99.90
69747;DHT22;57018;50.278;19.134;2022-11-21T04:38:41;-0.40;99.90
69747;DHT22;57018;50.278;19.134;2022-11-21T04:41:07;-0.40;99.90
69747;DHT22;57018;50.278;19.134;2022-11-21T04:43:32;-0.40;99.90
69747;DHT22;57018;50.278;19.134;2022-11-21T04:45:58;-0.40;99.90
69747;DHT22;57018;50.278;19.134;2022-11-21T04:48:25;-0.40;99.90
69747;DHT22;57018;50.278;19.134;2022-11-21T04:50:51;-0.40;99.90
69747;DHT22;57018;50.278;19.134;2022-11-21T04:53:17;-0.30;99.90
69747;DHT22;57018;50.278;19.134;2022-11-21T04:55:43;-0.40;99.90
69747;DHT22;57018;50.278;19.134;2022-11-21T04:58:09;-0.30;99.90
69747;DHT22;57018;50.278;19.134;2022-11-21T05:00:35;-0.40;99.90
69747;DHT22;57018;50.278;19.134;2022-11-21T05:03:02;-0.40;99.90
69747;DHT22;57018;50.278;19.134;2022-11-21T05:05:29;-0.30;99.90
69747;DHT22;57018;50.278;19.134;2022-11-21T05:07:55;-0.30;99.90
69747;DHT22;57018;50.278;19.134;2022-11-21T05:10:21;-0.30;99.90
69747;DHT22;57018;50.278;19.134;2022-11-21T05:12:47;-0.30;99.90
69747;DHT22;57018;50.278;19.134;2022-11-21T05:15:32;-0.30;99.90
69747;DHT22;57018;50.278;19.134;2022-11-21T05:17:58;-0.50;99.90
69747;DHT22;57018;50.278;19.134;2022-11-21T05:20:24;-0.50;99.90
69747;DHT22;57018;50.278;19.134;2022-11-21T05:22:51;-0.40;99.90
69747;DHT22;57018;50.278;19.134;2022-11-21T05:25:17;-0.30;99.90
69747;DHT22;57018;50.278;19.134;2022-11-21T05:27:43;-0.30;99.90
69747;DHT22;57018;50.278;19.134;2022-11-21T05:30:10;-0.30;99.90
69747;DHT22;57018;50.278;19.134;2022-11-21T05:32:36;-0.30;99.90
69747;DHT22;57018;50.278;19.134;2022-11-21T05:35:02;-0.30;99.90
69747;DHT22;57018;50.278;19.134;2022-11-21T05:37:28;-0.30;99.90
69747;DHT22;57018;50.278;19.134;2022-11-21T05:39:54;-0.30;99.90
69747;DHT22;57018;50.278;19.134;2022-11-21T05:42:20;-0.30;99.90
69747;DHT22;57018;50.278;19.134;2022-11-21T05:44:48;-0.40;99.60
69747;DHT22;57018;50.278;19.134;2022-11-21T05:47:14;-0.30;99.90
69747;DHT22;57018;50.278;19.134;2022-11-21T05:49:40;-0.40;99.80
69747;DHT22;57018;50.278;19.134;2022-11-21T05:52:06;-0.40;99.70
69747;DHT22;57018;50.278;19.134;2022-11-21T05:54:32;-0.50;99.90
69747;DHT22;57018;50.278;19.134;2022-11-21T05:56:59;-0.40;99.90
69747;DHT22;57018;50.278;19.134;2022-11-21T05:59:25;-0.40;99.90
69747;DHT22;57018;50.278;19.134;2022-11-21T06:01:51;-0.50;99.90
69747;DHT22;57018;50.278;19.134;2022-11-21T06:04:36;-0.40;99.90
69747;DHT22;57018;50.278;19.134;2022-11-21T06:07:02;-0.40;99.40
69747;DHT22;57018;50.278;19.134;2022-11-21T06:09:30;-0.40;99.60
69747;DHT22;57018;50.278;19.134;2022-11-21T06:11:56;-0.60;99.90
69747;DHT22;57018;50.278;19.134;2022-11-21T06:14:22;-0.50;99.90
69747;DHT22;57018;50.278;19.134;2022-11-21T06:16:49;-0.40;99.80
69747;DHT22;57018;50.278;19.134;2022-11-21T06:19:15;-0.40;99.90
69747;DHT22;57018;50.278;19.134;2022-11-21T06:21:41;-0.30;99.90
69747;DHT22;57018;50.278;19.134;2022-11-21T06:24:07;-0.30;99.90
69747;DHT22;57018;50.278;19.134;2022-11-21T06:26:34;-0.20;99.90
69747;DHT22;57018;50.278;19.134;2022-11-21T06:29:00;-0.20;99.90
69747;DHT22;57018;50.278;19.134;2022-11-21T06:31:26;-0.20;99.90
69747;DHT22;57018;50.278;19.134;2022-11-21T06:33:54;-0.10;99.90
69747;DHT22;57018;50.278;19.134;2022-11-21T06:36:21;0.00;99.90
69747;DHT22;57018;50.278;19.134;2022-11-21T06:38:48;0.00;99.90
69747;DHT22;57018;50.278;19.134;2022-11-21T06:41:19;0.00;99.90
69747;DHT22;57018;50.278;19.134;2022-11-21T06:43:45;0.20;99.90
69747;DHT22;57018;50.278;19.134;2022-11-21T06:46:12;0.10;99.90
69747;DHT22;57018;50.278;19.134;2022-11-21T06:48:40;0.10;99.70
69747;DHT22;57018;50.278;19.134;2022-11-21T06:51:10;0.10;99.50
69747;DHT22;57018;50.278;19.134;2022-11-21T06:53:35;0.00;99.80
69747;DHT22;57018;50.278;19.134;2022-11-21T06:56:01;0.10;99.50
69747;DHT22;57018;50.278;19.134;2022-11-21T06:58:28;0.10;99.90
69747;DHT22;57018;50.278;19.134;2022-11-21T07:00:54;0.20;99.80
69747;DHT22;57018;50.278;19.134;2022-11-21T07:03:21;0.30;99.60
69747;DHT22;57018;50.278;19.134;2022-11-21T07:05:48;0.40;99.60
69747;DHT22;57018;50.278;19.134;2022-11-21T07:08:15;0.40;99.40
69747;DHT22;57018;50.278;19.134;2022-11-21T07:10:41;0.30;99.20
69747;DHT22;57018;50.278;19.134;2022-11-21T07:13:09;0.40;99.30
69747;DHT22;57018;50.278;19.134;2022-11-21T07:15:52;0.40;98.90
69747;DHT22;57018;50.278;19.134;2022-11-21T07:18:20;0.50;99.20
69747;DHT22;57018;50.278;19.134;2022-11-21T07:20:47;0.50;99.50
69747;DHT22;57018;50.278;19.134;2022-11-21T07:23:14;0.60;98.80
69747;DHT22;57018;50.278;19.134;2022-11-21T07:25:40;0.70;98.30
69747;DHT22;57018;50.278;19.134;2022-11-21T07:28:07;0.90;97.80
69747;DHT22;57018;50.278;19.134;2022-11-21T07:30:35;1.00;97.60
69747;DHT22;57018;50.278;19.134;2022-11-21T07:33:03;0.90;97.20
69747;DHT22;57018;50.278;19.134;2022-11-21T07:35:30;1.10;97.00
69747;DHT22;57018;50.278;19.134;2022-11-21T07:37:57;1.00;96.80
69747;DHT22;57018;50.278;19.134;2022-11-21T07:40:23;1.30;97.20
69747;DHT22;57018;50.278;19.134;2022-11-21T07:42:50;1.30;96.20
69747;DHT22;57018;50.278;19.134;2022-11-21T07:45:16;1.50;96.30
69747;DHT22;57018;50.278;19.134;2022-11-21T07:47:42;1.30;95.90
69747;DHT22;57018;50.278;19.134;2022-11-21T07:50:10;1.60;96.10
69747;DHT22;57018;50.278;19.134;2022-11-21T07:52:37;1.70;95.40
69747;DHT22;57018;50.278;19.134;2022-11-21T07:55:04;1.80;96.00
69747;DHT22;57018;50.278;19.134;2022-11-21T07:57:31;1.80;94.40
69747;DHT22;57018;50.278;19.134;2022-11-21T07:59:58;2.00;94.90
69747;DHT22;57018;50.278;19.134;2022-11-21T08:02:26;2.10;94.00
69747;DHT22;57018;50.278;19.134;2022-11-21T08:04:53;2.30;93.80
69747;DHT22;57018;50.278;19.134;2022-11-21T08:07:21;2.20;93.40
69747;DHT22;57018;50.278;19.134;2022-11-21T08:09:47;2.10;92.60
69747;DHT22;57018;50.278;19.134;2022-11-21T08:12:14;2.50;92.70
69747;DHT22;57018;50.278;19.134;2022-11-21T08:14:40;2.50;92.30
69747;DHT22;57018;50.278;19.134;2022-11-21T08:17:07;2.50;92.20
69747;DHT22;57018;50.278;19.134;2022-11-21T08:19:33;2.60;92.10
69747;DHT22;57018;50.278;19.134;2022-11-21T08:22:00;2.50;91.90
69747;DHT22;57018;50.278;19.134;2022-11-21T08:24:26;2.70;91.20
69747;DHT22;57018;50.278;19.134;2022-11-21T08:26:52;2.80;90.80
69747;DHT22;57018;50.278;19.134;2022-11-21T08:29:19;2.80;91.10
69747;DHT22;57018;50.278;19.134;2022-11-21T08:31:45;3.00;91.40
69747;DHT22;57018;50.278;19.134;2022-11-21T08:34:11;3.10;91.10
69747;DHT22;57018;50.278;19.134;2022-11-21T08:36:37;3.10;90.50
69747;DHT22;57018;50.278;19.134;2022-11-21T08:39:03;3.50;90.30
69747;DHT22;57018;50.278;19.134;2022-11-21T08:41:30;3.80;89.90
69747;DHT22;57018;50.278;19.134;2022-11-21T08:44:14;3.60;89.60
69747;DHT22;57018;50.278;19.134;2022-11-21T08:46:40;3.60;89.10
69747;DHT22;57018;50.278;19.134;2022-11-21T08:49:06;3.90;89.30
69747;DHT22;57018;50.278;19.134;2022-11-21T08:51:33;4.10;89.00
69747;DHT22;57018;50.278;19.134;2022-11-21T08:54:00;4.00;87.80
69747;DHT22;57018;50.278;19.134;2022-11-21T08:56:27;4.30;88.70
69747;DHT22;57018;50.278;19.134;2022-11-21T08:58:53;4.70;88.40
69747;DHT22;57018;50.278;19.134;2022-11-21T09:01:21;4.50;87.70
69747;DHT22;57018;50.278;19.134;2022-11-21T09:03:47;4.50;88.00
69747;DHT22;57018;50.278;19.134;2022-11-21T09:06:13;4.80;87.10
69747;DHT22;57018;50.278;19.134;2022-11-21T09:08:40;5.00;87.10
69747;DHT22;57018;50.278;19.134;2022-11-21T09:11:08;4.90;86.90
69747;DHT22;57018;50.278;19.134;2022-11-21T09:13:35;5.10;86.50
69747;DHT22;57018;50.278;19.134;2022-11-21T09:16:02;5.00;86.60
69747;DHT22;57018;50.278;19.134;2022-11-21T09:18:46;5.10;86.30
69747;DHT22;57018;50.278;19.134;2022-11-21T09:21:17;5.10;86.00
69747;DHT22;57018;50.278;19.134;2022-11-21T09:23:44;5.10;85.60
69747;DHT22;57018;50.278;19.134;2022-11-21T09:26:10;5.10;85.90
69747;DHT22;57018;50.278;19.134;2022-11-21T09:28:37;4.90;86.00
69747;DHT22;57018;50.278;19.134;2022-11-21T09:31:04;5.00;86.10
69747;DHT22;57018;50.278;19.134;2022-11-21T09:33:30;5.20;86.60
69747;DHT22;57018;50.278;19.134;2022-11-21T09:35:58;5.20;86.50
69747;DHT22;57018;50.278;19.134;2022-11-21T09:38:25;5.20;86.40
69747;DHT22;57018;50.278;19.134;2022-11-21T09:40:55;5.30;86.30
69747;DHT22;57018;50.278;19.134;2022-11-21T09:46:14;5.40;86.50
69747;DHT22;57018;50.278;19.134;2022-11-21T09:48:53;5.50;86.30
69747;DHT22;57018;50.278;19.134;2022-11-21T09:51:23;5.70;85.50
69747;DHT22;57018;50.278;19.134;2022-11-21T09:54:00;5.50;86.10
69747;DHT22;57018;50.278;19.134;2022-11-21T09:56:29;5.50;86.30
69747;DHT22;57018;50.278;19.134;2022-11-21T10:01:36;5.50;87.10
69747;DHT22;57018;50.278;19.134;2022-11-21T10:04:22;5.40;87.40
69747;DHT22;57018;50.278;19.134;2022-11-21T10:09:36;5.40;88.40
69747;DHT22;57018;50.278;19.134;2022-11-21T10:18:21;5.60;88.10
69747;DHT22;57018;50.278;19.134;2022-11-21T10:28:40;6.40;85.20
69747;DHT22;57018;50.278;19.134;2022-11-21T10:31:02;6.40;84.90
69747;DHT22;57018;50.278;19.134;2022-11-21T10:33:33;6.50;84.10
69747;DHT22;57018;50.278;19.134;2022-11-21T10:38:41;6.80;83.90
69747;DHT22;57018;50.278;19.134;2022-11-21T10:44:27;6.90;83.60
69747;DHT22;57018;50.278;19.134;2022-11-21T10:47:23;6.80;83.30
69747;DHT22;57018;50.278;19.134;2022-11-21T10:55:59;7.10;83.30
69747;DHT22;57018;50.278;19.134;2022-11-21T10:58:47;7.20;82.90
69747;DHT22;57018;50.278;19.134;2022-11-21T11:01:32;7.40;82.70
69747;DHT22;57018;50.278;19.134;2022-11-21T11:04:16;7.40;82.10
69747;DHT22;57018;50.278;19.134;2022-11-21T11:06:45;7.60;81.80
69747;DHT22;57018;50.278;19.134;2022-11-21T11:14:54;7.60;81.80
69747;DHT22;57018;50.278;19.134;2022-11-21T11:17:29;7.50;81.80
69747;DHT22;57018;50.278;19.134;2022-11-21T11:20:27;7.70;81.80
69747;DHT22;57018;50.278;19.134;2022-11-21T11:22:35;7.90;81.70
69747;DHT22;57018;50.278;19.134;2022-11-21T11:25:02;8.10;81.50
69747;DHT22;57018;50.278;19.134;2022-11-21T11:27:30;8.00;81.20
69747;DHT22;57018;50.278;19.134;2022-11-21T11:29:56;8.30;80.80
69747;DHT22;57018;50.278;19.134;2022-11-21T11:32:24;8.30;80.70
69747;DHT22;57018;50.278;19.134;2022-11-21T11:34:56;8.20;80.80
69747;DHT22;57018;50.278;19.134;2022-11-21T11:37:37;8.30;80.40
69747;DHT22;57018;50.278;19.134;2022-11-21T11:46:00;8.30;80.30
69747;DHT22;57018;50.278;19.134;2022-11-21T11:48:42;8.50;79.90
69747;DHT22;57018;50.278;19.134;2022-11-21T11:53:49;8.60;80.10
69747;DHT22;57018;50.278;19.134;2022-11-21T12:01:28;8.60;79.90
69747;DHT22;57018;50.278;19.134;2022-11-21T12:04:13;8.70;79.90
69747;DHT22;57018;50.278;19.134;2022-11-21T12:06:54;8.70;79.60
69747;DHT22;57018;50.278;19.134;2022-11-21T12:09:26;8.70;79.50
69747;DHT22;57018;50.278;19.134;2022-11-21T12:14:47;8.80;80.00
69747;DHT22;57018;50.278;19.134;2022-11-21T12:20:18;8.70;79.10
69747;DHT22;57018;50.278;19.134;2022-11-21T12:22:34;8.80;79.80
69747;DHT22;57018;50.278;19.134;2022-11-21T12:25:00;8.60;79.90
69747;DHT22;57018;50.278;19.134;2022-11-21T12:27:30;8.80;79.70
69747;DHT22;57018;50.278;19.134;2022-11-21T12:32:56;8.90;79.70
69747;DHT22;57018;50.278;19.134;2022-11-21T12:50:02;8.70;80.20
69747;DHT22;57018;50.278;19.134;2022-11-21T12:52:55;8.60;80.40
69747;DHT22;57018;50.278;19.134;2022-11-21T12:55:38;8.40;80.80
69747;DHT22;57018;50.278;19.134;2022-11-21T12:58:26;8.50;81.10
69747;DHT22;57018;50.278;19.134;2022-11-21T13:01:01;8.30;80.90
69747;DHT22;57018;50.278;19.134;2022-11-21T13:06:19;8.10;81.60
69747;DHT22;57018;50.278;19.134;2022-11-21T13:08:44;7.80;82.20
69747;DHT22;57018;50.278;19.134;2022-11-21T13:20:04;7.70;83.40
69747;DHT22;57018;50.278;19.134;2022-11-21T13:25:36;8.00;82.90
69747;DHT22;57018;50.278;19.134;2022-11-21T13:30:54;8.20;82.60
69747;DHT22;57018;50.278;19.134;2022-11-21T13:52:43;8.10;82.50
69747;DHT22;57018;50.278;19.134;2022-11-21T14:06:39;7.80;83.00
69747;DHT22;57018;50.278;19.134;2022-11-21T14:09:18;7.90;83.10
69747;DHT22;57018;50.278;19.134;2022-11-21T14:12:02;7.80;83.10
69747;DHT22;57018;50.278;19.134;2022-11-21T14:14:37;7.80;83.40
69747;DHT22;57018;50.278;19.134;2022-11-21T14:19:51;7.80;83.30
69747;DHT22;57018;50.278;19.134;2022-11-21T14:25:08;7.60;83.90
69747;DHT22;57018;50.278;19.134;2022-11-21T14:27:38;7.80;83.70
69747;DHT22;57018;50.278;19.134;2022-11-21T14:30:04;7.60;83.80
69747;DHT22;57018;50.278;19.134;2022-11-21T14:32:31;7.60;84.00
69747;DHT22;57018;50.278;19.134;2022-11-21T14:35:22;7.80;84.30
69747;DHT22;57018;50.278;19.134;2022-11-21T14:37:45;7.50;84.70
69747;DHT22;57018;50.278;19.134;2022-11-21T14:40:12;7.60;84.10
69747;DHT22;57018;50.278;19.134;2022-11-21T14:42:39;7.60;84.60
69747;DHT22;57018;50.278;19.134;2022-11-21T14:45:14;7.60;83.90
69747;DHT22;57018;50.278;19.134;2022-11-21T14:47:44;7.50;84.30
69747;DHT22;57018;50.278;19.134;2022-11-21T14:50:19;7.60;84.20
69747;DHT22;57018;50.278;19.134;2022-11-21T14:52:35;7.30;84.10
69747;DHT22;57018;50.278;19.134;2022-11-21T14:55:03;7.50;84.30
69747;DHT22;57018;50.278;19.134;2022-11-21T14:57:32;7.60;83.90
69747;DHT22;57018;50.278;19.134;2022-11-21T15:00:00;7.50;83.80
69747;DHT22;57018;50.278;19.134;2022-11-21T15:02:29;7.50;84.00
69747;DHT22;57018;50.278;19.134;2022-11-21T15:05:02;7.40;83.80
69747;DHT22;57018;50.278;19.134;2022-11-21T15:07:34;7.30;84.30
69747;DHT22;57018;50.278;19.134;2022-11-21T15:10:02;7.40;84.30
69747;DHT22;57018;50.278;19.134;2022-11-21T15:18:00;7.30;84.40
69747;DHT22;57018;50.278;19.134;2022-11-21T15:20:27;7.30;84.30
69747;DHT22;57018;50.278;19.134;2022-11-21T15:22:57;7.50;84.60
69747;DHT22;57018;50.278;19.134;2022-11-21T15:25:29;7.40;84.40
69747;DHT22;57018;50.278;19.134;2022-11-21T15:30:30;7.20;84.60
69747;DHT22;57018;50.278;19.134;2022-11-21T15:35:40;7.30;85.10
69747;DHT22;57018;50.278;19.134;2022-11-21T15:41:00;7.20;86.40
69747;DHT22;57018;50.278;19.134;2022-11-21T15:43:47;7.00;86.90
69747;DHT22;57018;50.278;19.134;2022-11-21T15:46:19;7.20;86.80
69747;DHT22;57018;50.278;19.134;2022-11-21T15:48:51;7.00;88.10
69747;DHT22;57018;50.278;19.134;2022-11-21T15:51:16;6.90;89.10
69747;DHT22;57018;50.278;19.134;2022-11-21T15:53:43;7.00;89.20
69747;DHT22;57018;50.278;19.134;2022-11-21T15:56:11;7.00;89.60
69747;DHT22;57018;50.278;19.134;2022-11-21T15:58:39;6.80;90.00
69747;DHT22;57018;50.278;19.134;2022-11-21T16:01:05;6.90;89.80
69747;DHT22;57018;50.278;19.134;2022-11-21T16:03:31;6.70;89.90
69747;DHT22;57018;50.278;19.134;2022-11-21T16:05:57;6.80;90.10
69747;DHT22;57018;50.278;19.134;2022-11-21T16:08:23;6.80;90.00
69747;DHT22;57018;50.278;19.134;2022-11-21T16:10:50;6.80;90.10
69747;DHT22;57018;50.278;19.134;2022-11-21T16:13:16;6.80;90.50
69747;DHT22;57018;50.278;19.134;2022-11-21T16:15:42;6.90;91.00
69747;DHT22;57018;50.278;19.134;2022-11-21T16:18:08;6.80;90.60
69747;DHT22;57018;50.278;19.134;2022-11-21T16:20:34;6.90;90.80
69747;DHT22;57018;50.278;19.134;2022-11-21T16:23:00;6.80;91.30
69747;DHT22;57018;50.278;19.134;2022-11-21T16:25:26;6.50;91.90
69747;DHT22;57018;50.278;19.134;2022-11-21T16:27:52;6.70;91.90
69747;DHT22;57018;50.278;19.134;2022-11-21T16:30:18;6.40;91.90
69747;DHT22;57018;50.278;19.134;2022-11-21T16:32:45;6.40;91.80
69747;DHT22;57018;50.278;19.134;2022-11-21T16:35:11;6.50;92.00
69747;DHT22;57018;50.278;19.134;2022-11-21T16:37:37;6.40;93.00
69747;DHT22;57018;50.278;19.134;2022-11-21T16:40:03;6.30;93.10
69747;DHT22;57018;50.278;19.134;2022-11-21T16:42:30;6.20;93.10
69747;DHT22;57018;50.278;19.134;2022-11-21T16:44:56;6.40;93.00
69747;DHT22;57018;50.278;19.134;2022-11-21T16:47:22;6.20;92.50
69747;DHT22;57018;50.278;19.134;2022-11-21T16:49:48;6.40;92.90
69747;DHT22;57018;50.278;19.134;2022-11-21T16:52:14;6.40;92.70
69747;DHT22;57018;50.278;19.134;2022-11-21T16:54:42;6.40;92.70
69747;DHT22;57018;50.278;19.134;2022-11-21T16:57:08;6.50;92.90
69747;DHT22;57018;50.278;19.134;2022-11-21T16:59:35;6.50;92.60
69747;DHT22;57018;50.278;19.134;2022-11-21T17:02:01;6.50;92.50
69747;DHT22;57018;50.278;19.134;2022-11-21T17:04:27;6.50;92.80
69747;DHT22;57018;50.278;19.134;2022-11-21T17:06:53;6.40;92.70
69747;DHT22;57018;50.278;19.134;2022-11-21T17:09:19;6.50;92.60
69747;DHT22;57018;50.278;19.134;2022-11-21T17:11:45;6.40;92.60
69747;DHT22;57018;50.278;19.134;2022-11-21T17:14:11;6.50;92.70
69747;DHT22;57018;50.278;19.134;2022-11-21T17:16:37;6.50;93.00
69747;DHT22;57018;50.278;19.134;2022-11-21T17:19:05;6.50;93.20
69747;DHT22;57018;50.278;19.134;2022-11-21T17:21:32;6.60;92.50
69747;DHT22;57018;50.278;19.134;2022-11-21T17:23:58;6.70;92.40
69747;DHT22;57018;50.278;19.134;2022-11-21T17:26:26;6.80;92.40
69747;DHT22;57018;50.278;19.134;2022-11-21T17:28:58;6.80;91.80
69747;DHT22;57018;50.278;19.134;2022-11-21T17:31:21;6.60;91.90
69747;DHT22;57018;50.278;19.134;2022-11-21T17:33:48;6.70;91.80
69747;DHT22;57018;50.278;19.134;2022-11-21T17:36:21;6.70;91.70
69747;DHT22;57018;50.278;19.134;2022-11-21T17:38:48;6.80;91.40
69747;DHT22;57018;50.278;19.134;2022-11-21T17:41:16;6.60;92.10
69747;DHT22;57018;50.278;19.134;2022-11-21T17:43:43;6.60;92.00
69747;DHT22;57018;50.278;19.134;2022-11-21T17:46:11;6.50;92.20
69747;DHT22;57018;50.278;19.134;2022-11-21T17:48:38;6.60;92.60
69747;DHT22;57018;50.278;19.134;2022-11-21T17:51:11;6.50;92.60
69747;DHT22;57018;50.278;19.134;2022-11-21T17:53:39;6.50;92.90
69747;DHT22;57018;50.278;19.134;2022-11-21T17:56:10;6.40;93.10
69747;DHT22;57018;50.278;19.134;2022-11-21T17:58:36;6.60;92.90
69747;DHT22;57018;50.278;19.134;2022-11-21T18:01:04;6.50;92.80